createdAt,value
2018-09-09T14:12:56.043Z,25.77
2018-09-09T14:13:55.996Z,25.59
2018-09-09T14:14:55.986Z,25.37
2018-09-09T14:15:55.971Z,25.34
2018-09-09T14:16:55.960Z,25.53
2018-09-09T14:17:55.957Z,25.52
2018-09-09T14:18:55.992Z,25.34
2018-09-09T14:19:55.929Z,25.31
2018-09-09T14:20:55.916Z,25.26
2018-09-09T14:21:55.906Z,25.15
2018-09-09T14:22:55.905Z,25.15
2018-09-09T14:23:55.890Z,25.09
2018-09-09T14:24:55.922Z,25.04
2018-09-09T14:25:55.867Z,25.04
2018-09-09T14:26:55.852Z,25.06
2018-09-09T14:27:55.900Z,25.00
2018-09-09T14:29:19.441Z,25.08
2018-09-09T14:30:19.402Z,25.00
2018-09-09T14:31:19.345Z,25.00
2018-09-09T14:32:19.332Z,24.99
2018-09-09T14:33:42.187Z,24.96
2018-09-09T14:34:42.170Z,24.97
2018-09-09T14:35:42.196Z,24.94
2018-09-09T14:36:42.152Z,24.94
2018-09-09T14:37:42.141Z,24.93
2018-09-09T14:38:42.171Z,24.89
2018-09-09T14:39:42.123Z,24.91
2018-09-09T14:40:42.108Z,24.89
2018-09-09T14:41:42.096Z,24.86
2018-09-09T14:42:42.095Z,24.74
2018-09-09T14:43:42.080Z,24.84
2018-09-09T14:44:42.111Z,24.91
2018-09-09T14:45:42.052Z,24.89
2018-09-09T14:46:42.051Z,24.90
2018-09-09T14:47:42.033Z,24.79
2018-09-09T14:48:42.022Z,24.76
2018-09-09T14:49:42.011Z,24.76
2018-09-09T14:50:42.041Z,24.76
2018-09-09T14:51:41.990Z,24.74
2018-09-09T14:52:41.982Z,24.81
2018-09-09T14:53:41.970Z,24.75
2018-09-09T14:54:42.005Z,24.79
2018-09-09T14:55:41.951Z,24.71
2018-09-09T14:56:41.940Z,24.71
2018-09-09T14:57:41.935Z,24.79
2018-09-09T14:58:41.922Z,24.76
2018-09-09T14:59:41.911Z,24.74
2018-09-09T15:00:41.935Z,24.79
2018-09-09T15:01:41.884Z,24.94
2018-09-09T15:02:41.875Z,25.45
2018-09-09T15:03:41.865Z,26.26
2018-09-09T15:04:41.852Z,26.79
2018-09-09T15:05:41.849Z,26.64
2018-09-09T15:06:41.869Z,26.58
2018-09-09T15:07:41.821Z,26.53
2018-09-09T15:08:41.810Z,26.26
2018-09-09T15:09:41.797Z,25.92
2018-09-09T15:10:41.790Z,25.58
2018-09-09T15:11:41.830Z,25.26
2018-09-09T15:12:41.767Z,25.26
2018-09-09T15:13:41.754Z,25.09
2018-09-09T15:14:41.753Z,25.01
2018-09-09T15:15:41.734Z,25.09
2018-09-09T15:16:41.775Z,25.06
2018-09-09T15:17:41.764Z,25.03
2018-09-09T15:18:41.700Z,24.96
2018-09-09T15:19:41.692Z,24.97
2018-09-09T15:20:41.685Z,24.89
2018-09-09T15:21:41.668Z,24.90
2018-09-09T15:22:41.667Z,24.82
2018-09-09T15:23:41.696Z,24.86
2018-09-09T15:24:41.642Z,24.86
2018-09-09T15:25:41.631Z,24.90
2018-09-09T15:26:41.619Z,24.84
2018-09-09T15:27:41.606Z,24.82
2018-09-09T15:28:41.714Z,24.78
2018-09-09T15:29:41.591Z,24.84
2018-09-09T15:30:41.574Z,24.79
2018-09-09T15:31:41.565Z,24.71
2018-09-09T15:32:41.554Z,24.79
2018-09-09T15:33:41.548Z,24.76
2018-09-09T15:34:41.576Z,24.75
2018-09-09T15:35:41.521Z,24.75
2018-09-09T15:36:41.520Z,24.76
2018-09-09T15:37:41.503Z,24.70
2018-09-09T15:38:41.489Z,24.68
2018-09-09T15:39:41.527Z,24.66
2018-09-09T15:40:41.474Z,24.70
2018-09-09T15:41:41.458Z,24.70
2018-09-09T15:42:41.448Z,24.60
2018-09-09T15:44:15.121Z,24.78
2018-09-09T15:45:15.145Z,24.71
2018-09-09T15:46:15.093Z,24.65
2018-09-09T15:47:15.083Z,24.66
2018-09-09T15:48:15.868Z,24.65
2018-09-09T15:49:15.063Z,24.58
2018-09-09T15:50:15.066Z,24.56
2018-09-09T15:51:15.081Z,24.58
2018-09-09T15:52:15.064Z,24.47
2018-09-09T15:53:15.016Z,24.58
2018-09-09T15:54:15.007Z,24.47
2018-09-09T15:55:15.039Z,24.52
2018-09-09T15:56:14.988Z,24.53
2018-09-09T15:57:14.977Z,24.55
2018-09-09T15:58:14.966Z,24.62
2018-09-09T15:59:14.956Z,24.56
2018-09-09T16:00:15.007Z,24.52
2018-09-09T16:01:14.974Z,24.53
2018-09-09T16:02:14.932Z,24.55
2018-09-09T16:03:14.911Z,24.43
2018-09-09T16:04:14.942Z,24.41
2018-09-09T16:05:14.890Z,24.44
2018-09-09T16:06:14.884Z,24.43
2018-09-09T16:07:15.951Z,24.45
2018-09-09T16:08:14.865Z,24.47
2018-09-09T16:09:14.857Z,24.58
2018-09-09T16:10:14.885Z,24.56
2018-09-09T16:11:14.836Z,24.58
2018-09-09T16:12:14.820Z,24.59
2018-09-09T16:13:14.806Z,24.66
2018-09-09T16:14:14.802Z,24.59
2018-09-09T16:15:14.789Z,24.59
2018-09-09T16:16:14.822Z,24.63
2018-09-09T16:17:14.770Z,24.62
2018-09-09T16:18:14.756Z,24.60
2018-09-09T16:19:14.746Z,24.60
2018-09-09T16:20:14.732Z,24.63
2018-09-09T16:21:14.725Z,24.60
2018-09-09T16:22:14.755Z,24.59
2018-09-09T16:23:14.709Z,24.55
2018-09-09T16:24:14.700Z,24.59
2018-09-09T16:25:14.688Z,24.55
2018-09-09T16:26:14.678Z,24.48
2018-09-09T16:27:14.661Z,24.60
2018-09-09T16:28:14.689Z,24.56
2018-09-09T16:29:14.640Z,24.59
2018-09-09T16:30:16.352Z,24.48
2018-09-09T16:31:14.639Z,24.56
2018-09-09T16:32:14.604Z,24.56
2018-09-09T16:33:14.711Z,24.55
2018-09-09T16:34:14.624Z,24.52
2018-09-09T16:35:14.580Z,24.53
2018-09-09T16:36:14.610Z,24.66
2018-09-09T16:37:14.553Z,24.70
2018-09-09T16:38:14.542Z,24.81
2018-09-09T16:39:14.532Z,24.81
2018-09-09T16:40:14.527Z,24.71
2018-09-09T16:41:14.516Z,24.59
2018-09-09T16:42:14.541Z,24.55
2018-09-09T16:43:14.493Z,24.60
2018-09-09T16:44:14.483Z,24.43
2018-09-09T16:45:14.466Z,24.37
2018-09-09T16:46:14.500Z,24.29
2018-09-09T16:47:14.450Z,24.40
2018-09-09T16:48:14.433Z,24.16
2018-09-09T16:49:14.434Z,24.23
2018-09-09T16:50:14.417Z,24.23
2018-09-09T16:51:14.449Z,24.22
2018-09-09T16:52:14.392Z,24.19
2018-09-09T16:53:14.383Z,24.21
2018-09-09T16:54:15.394Z,24.18
2018-09-09T16:55:14.359Z,24.19
2018-09-09T16:56:14.355Z,24.15
2018-09-09T16:57:14.385Z,24.15
2018-09-09T16:58:14.331Z,24.21
2018-09-09T16:59:14.318Z,24.13
2018-09-09T17:00:14.353Z,24.13
2018-09-09T17:01:14.319Z,24.11
2018-09-09T17:02:14.287Z,24.16
2018-09-09T17:03:14.301Z,24.08
2018-09-09T17:04:14.268Z,24.07
2018-09-09T17:05:14.259Z,24.04
2018-09-09T17:06:14.284Z,24.04
2018-09-09T17:07:14.235Z,24.01
2018-09-09T17:08:14.276Z,24.00
2018-09-09T17:09:14.227Z,23.98
2018-09-09T17:10:14.219Z,23.92
2018-09-09T17:11:14.191Z,24.08
2018-09-09T17:12:14.181Z,23.96
2018-09-09T17:13:14.176Z,23.96
2018-09-09T17:14:15.450Z,23.89
2018-09-09T17:15:14.153Z,23.91
2018-09-09T17:16:14.176Z,24.00
2018-09-09T17:17:14.129Z,24.00
2018-09-09T17:18:14.118Z,24.01
2018-09-09T17:19:14.112Z,24.01
2018-09-09T17:20:14.136Z,24.06
2018-09-09T17:21:14.091Z,23.92
2018-09-09T17:22:14.075Z,23.92
2018-09-09T17:23:14.066Z,23.82
2018-09-09T17:24:14.056Z,23.82
2018-09-09T17:25:14.087Z,23.78
2018-09-09T17:26:14.035Z,23.81
2018-09-09T17:27:14.028Z,23.79
2018-09-09T17:28:14.014Z,23.86
2018-09-09T17:29:14.002Z,23.78
